Time;durP1;ratioP1;P1;durP2;ratioP2;P2;SDS_P1;SDS_P2;PMS_P1;PMS_P2;Temp;Humidity;BMP_temperature;BMP_pressure;BME280_temperature;BME280_humidity;BME280_pressure;Samples;Min_cycle;Max_cycle;Signal;HPM_P1;HPM_P2
2021/12/31 00:01:12;;;;;;;16.63;5.63;;;11.80;93.80;;;;;;5096630;28;20433;-51
2021/12/31 00:03:38;;;;;;;20.95;6.85;;;11.80;93.70;;;;;;5103079;28;20036;-51
2021/12/31 00:06:06;;;;;;;18.58;6.25;;;11.80;93.50;;;;;;5103976;28;20085;-52
2021/12/31 00:08:33;;;;;;;16.50;8.30;;;11.80;93.50;;;;;;5082107;28;20089;-53
2021/12/31 00:10:59;;;;;;;23.25;6.68;;;11.80;93.50;;;;;;5083471;28;20038;-52
2021/12/31 00:13:32;;;;;;;18.83;7.20;;;11.80;93.40;;;;;;5110275;27;20038;-51
2021/12/31 00:15:58;;;;;;;17.70;6.72;;;11.80;93.40;;;;;;5102376;28;20024;-47
2021/12/31 00:18:24;;;;;;;18.40;6.95;;;11.80;93.30;;;;;;5086100;28;20346;-46
2021/12/31 00:20:55;;;;;;;15.43;6.10;;;11.80;93.20;;;;;;5087408;28;20036;-51
2021/12/31 00:23:24;;;;;;;25.92;7.35;;;11.80;93.20;;;;;;5090204;28;20078;-54
2021/12/31 00:25:50;;;;;;;14.63;6.30;;;11.80;93.10;;;;;;5102830;28;20024;-47
2021/12/31 00:28:17;;;;;;;19.17;7.10;;;11.80;93.10;;;;;;5108529;27;20050;-48
2021/12/31 00:30:51;;;;;;;15.13;7.13;;;11.80;93.10;;;;;;5113496;27;20073;-50
2021/12/31 00:33:18;;;;;;;16.50;7.30;;;11.80;93.00;;;;;;5094408;28;20380;-48
2021/12/31 00:35:45;;;;;;;16.25;6.93;;;11.80;93.00;;;;;;5095418;28;20024;-47
2021/12/31 00:38:12;;;;;;;14.73;6.10;;;11.80;93.00;;;;;;5102403;27;20039;-52
2021/12/31 00:40:39;;;;;;;14.35;6.18;;;11.80;92.90;;;;;;5095615;27;20051;-47
2021/12/31 00:43:06;;;;;;;18.33;6.45;;;11.80;93.00;;;;;;5096362;27;20040;-50
2021/12/31 00:45:37;;;;;;;19.40;6.50;;;11.80;92.90;;;;;;5080981;27;20517;-51
2021/12/31 00:48:04;;;;;;;17.40;5.97;;;11.80;92.80;;;;;;5093902;27;20028;-46
2021/12/31 00:50:30;;;;;;;17.48;7.78;;;11.80;92.80;;;;;;5096418;28;20028;-48
2021/12/31 00:52:57;;;;;;;14.68;6.82;;;11.90;92.70;;;;;;5085303;28;20028;-48
2021/12/31 00:55:24;;;;;;;18.85;5.80;;;11.80;92.60;;;;;;5081790;28;20512;-49
2021/12/31 00:57:50;;;;;;;11.68;5.38;;;11.80;92.70;;;;;;5094769;27;20028;-48
2021/12/31 01:00:17;;;;;;;16.10;5.55;;;11.80;92.60;;;;;;5105480;28;20514;-47
2021/12/31 01:02:46;;;;;;;15.98;5.63;;;11.90;92.50;;;;;;5076740;28;20028;-47
2021/12/31 01:05:14;;;;;;;16.13;5.25;;;11.90;92.40;;;;;;5097538;28;20035;-47
2021/12/31 01:07:42;;;;;;;19.00;5.28;;;11.80;92.30;;;;;;5100518;28;20078;-49
2021/12/31 01:10:12;;;;;;;16.77;5.63;;;11.90;92.30;;;;;;5098079;28;20628;-48
2021/12/31 01:12:40;;;;;;;13.40;5.20;;;11.90;92.30;;;;;;5101012;28;20063;-49
2021/12/31 01:15:12;;;;;;;14.82;4.32;;;11.90;92.30;;;;;;5094347;28;20095;-46
2021/12/31 01:20:14;;;;;;;15.63;4.35;;;11.90;92.20;;;;;;5105401;28;20377;-44
2021/12/31 01:22:40;;;;;;;13.10;4.43;;;11.90;92.10;;;;;;5097441;28;20092;-46
2021/12/31 01:25:08;;;;;;;13.35;3.70;;;11.90;92.10;;;;;;5103851;28;20063;-43
2021/12/31 01:27:36;;;;;;;17.50;3.90;;;11.90;92.00;;;;;;5107061;28;20024;-45
2021/12/31 01:30:05;;;;;;;13.02;4.15;;;11.90;91.90;;;;;;5096053;28;20032;-48
2021/12/31 01:32:32;;;;;;;19.97;4.70;;;11.90;91.80;;;;;;5078909;28;20020;-43
2021/12/31 01:35:00;;;;;;;13.63;3.15;;;11.90;91.80;;;;;;5093823;28;20088;-43
2021/12/31 01:37:27;;;;;;;14.73;3.40;;;11.90;91.70;;;;;;5094779;27;20020;-44
2021/12/31 01:39:54;;;;;;;16.60;3.88;;;12.00;91.70;;;;;;5094015;27;20036;-47
2021/12/31 01:42:27;;;;;;;11.23;4.85;;;11.90;91.70;;;;;;5101851;28;20130;-47
2021/12/31 01:45:01;;;;;;;17.13;4.65;;;11.90;91.70;;;;;;5111304;28;20028;-43
2021/12/31 01:47:45;;;;;;;14.75;4.55;;;11.90;91.70;;;;;;5101518;27;20328;-42
2021/12/31 01:50:15;;;;;;;20.10;4.15;;;11.90;91.70;;;;;;5097470;28;20016;-46
2021/12/31 01:52:41;;;;;;;16.42;4.20;;;11.90;91.60;;;;;;5103148;27;20055;-44
2021/12/31 01:55:13;;;;;;;16.02;4.95;;;12.00;91.50;;;;;;5097584;27;20052;-43
2021/12/31 01:57:40;;;;;;;16.73;3.60;;;12.00;91.30;;;;;;5074925;28;20024;-46
2021/12/31 02:00:07;;;;;;;21.73;4.43;;;12.00;91.30;;;;;;5093771;28;20032;-45
2021/12/31 02:02:37;;;;;;;12.82;3.92;;;12.00;91.30;;;;;;5087025;28;20059;-45
2021/12/31 02:05:05;;;;;;;11.65;3.22;;;12.10;91.10;;;;;;5097752;28;20043;-45
2021/12/31 02:07:32;;;;;;;18.08;4.13;;;12.10;91.10;;;;;;5100259;27;20040;-45
2021/12/31 02:09:59;;;;;;;18.27;3.13;;;12.00;91.00;;;;;;5098470;28;20032;-46
2021/12/31 02:12:25;;;;;;;13.30;3.83;;;12.00;91.00;;;;;;5095958;28;20028;-44
2021/12/31 02:14:53;;;;;;;9.43;4.07;;;12.00;91.00;;;;;;5103000;28;20028;-44
2021/12/31 02:17:20;;;;;;;11.18;3.10;;;12.00;90.80;;;;;;5096222;28;20062;-45
2021/12/31 02:20:06;;;;;;;16.33;3.88;;;12.00;90.80;;;;;;5110925;27;20059;-43
2021/12/31 02:22:49;;;;;;;18.27;5.07;;;11.90;90.90;;;;;;5093832;28;20502;-43
2021/12/31 02:25:19;;;;;;;16.02;3.58;;;12.00;90.90;;;;;;5087490;28;20031;-43
2021/12/31 02:27:45;;;;;;;18.88;4.47;;;11.90;90.90;;;;;;5088885;28;20852;-45
2021/12/31 02:30:12;;;;;;;14.45;3.88;;;11.90;90.80;;;;;;5095847;28;20039;-45
2021/12/31 02:32:42;;;;;;;16.42;3.55;;;11.90;90.80;;;;;;5075524;28;20464;-48
2021/12/31 02:35:10;;;;;;;13.90;4.57;;;11.90;90.80;;;;;;5107784;28;20032;-45
2021/12/31 02:37:39;;;;;;;14.40;5.18;;;11.90;90.70;;;;;;5088666;28;20024;-44
2021/12/31 02:40:09;;;;;;;11.40;3.25;;;11.90;90.80;;;;;;5092192;28;20670;-43
2021/12/31 02:42:35;;;;;;;13.75;3.97;;;11.90;90.80;;;;;;5081640;28;20061;-46
2021/12/31 02:45:02;;;;;;;14.13;3.35;;;11.90;90.90;;;;;;5108287;28;20376;-45
2021/12/31 02:47:31;;;;;;;13.50;4.55;;;11.80;90.90;;;;;;5108388;28;20036;-44
2021/12/31 02:50:03;;;;;;;17.23;4.20;;;11.90;90.70;;;;;;5099576;28;20364;-43
2021/12/31 02:52:30;;;;;;;19.83;3.75;;;11.90;90.80;;;;;;5098475;28;20294;-44
2021/12/31 02:55:00;;;;;;;19.58;5.13;;;11.90;90.80;;;;;;5092705;28;20016;-48
2021/12/31 02:57:27;;;;;;;18.85;5.03;;;11.80;90.90;;;;;;5097863;28;20171;-43
2021/12/31 02:59:53;;;;;;;15.95;4.13;;;11.90;90.80;;;;;;5100198;28;20028;-45
2021/12/31 03:02:24;;;;;;;13.07;3.55;;;11.90;90.80;;;;;;5099785;28;20040;-44
2021/12/31 03:04:52;;;;;;;12.05;3.83;;;11.90;90.70;;;;;;5102720;28;20032;-44
2021/12/31 03:07:24;;;;;;;15.27;5.68;;;11.90;90.70;;;;;;5096314;28;20448;-44
2021/12/31 03:09:52;;;;;;;15.50;4.05;;;11.90;90.70;;;;;;5101630;28;20032;-49
2021/12/31 03:12:19;;;;;;;14.52;3.55;;;11.90;90.60;;;;;;5097652;28;20040;-45
2021/12/31 03:14:50;;;;;;;10.43;3.83;;;11.90;90.60;;;;;;5092748;28;20039;-44
2021/12/31 03:17:18;;;;;;;10.50;3.90;;;11.90;90.60;;;;;;5092882;28;20065;-45
2021/12/31 03:19:45;;;;;;;21.77;4.88;;;11.90;90.50;;;;;;5094104;28;20468;-43
2021/12/31 03:22:12;;;;;;;15.25;4.22;;;11.90;90.50;;;;;;5113089;28;20074;-43
2021/12/31 03:24:39;;;;;;;15.43;4.40;;;11.90;90.50;;;;;;5099640;28;20028;-45
2021/12/31 03:27:05;;;;;;;18.15;4.13;;;11.90;90.50;;;;;;5107791;28;20034;-46
2021/12/31 03:29:32;;;;;;;15.63;4.57;;;11.90;90.60;;;;;;5092885;28;20036;-42
2021/12/31 03:31:59;;;;;;;20.25;4.00;;;11.90;90.50;;;;;;5092509;28;20085;-44
2021/12/31 03:34:28;;;;;;;12.45;3.72;;;11.80;90.60;;;;;;5075030;28;20028;-48
2021/12/31 03:36:55;;;;;;;16.38;4.03;;;11.90;90.70;;;;;;5092985;28;20031;-46
2021/12/31 03:39:22;;;;;;;13.73;3.95;;;11.80;90.60;;;;;;5091938;28;20063;-47
2021/12/31 03:41:49;;;;;;;19.60;4.05;;;11.90;90.60;;;;;;5092491;28;20032;-45
2021/12/31 03:44:19;;;;;;;13.65;4.00;;;11.80;90.60;;;;;;5093063;28;20059;-47
2021/12/31 03:46:46;;;;;;;17.05;4.75;;;11.80;90.60;;;;;;5091940;28;20046;-46
2021/12/31 03:49:12;;;;;;;12.45;4.13;;;11.80;90.70;;;;;;5074265;28;20594;-45
2021/12/31 03:51:39;;;;;;;16.17;4.13;;;11.80;90.60;;;;;;5094648;28;20391;-43
2021/12/31 03:54:06;;;;;;;17.50;4.13;;;11.90;90.50;;;;;;5078271;28;20454;-44
2021/12/31 03:56:34;;;;;;;17.65;3.90;;;11.80;90.60;;;;;;5078756;28;20028;-45
2021/12/31 03:59:01;;;;;;;12.48;3.95;;;11.90;90.50;;;;;;5097165;28;20047;-44
2021/12/31 04:01:31;;;;;;;16.05;4.20;;;11.90;90.40;;;;;;5111876;28;20053;-45
2021/12/31 04:03:58;;;;;;;;;;;11.90;90.50;;;;;;5081183;28;20044;-45
2021/12/31 04:06:25;;;;;;;13.68;4.22;;;11.90;90.40;;;;;;5094342;28;19916;-43
2021/12/31 04:08:55;;;;;;;17.88;6.05;;;11.90;90.50;;;;;;5108112;27;20035;-44
2021/12/31 04:11:22;;;;;;;10.55;4.13;;;11.90;90.60;;;;;;5100292;28;20033;-44
2021/12/31 04:13:48;;;;;;;14.98;4.20;;;11.90;90.40;;;;;;5089634;28;20028;-44
2021/12/31 04:16:17;;;;;;;16.42;4.78;;;12.00;90.40;;;;;;5085877;28;20039;-46
2021/12/31 04:18:44;;;;;;;14.68;5.18;;;12.00;90.30;;;;;;5095731;28;20452;-47
2021/12/31 04:21:15;;;;;;;14.13;4.88;;;12.00;90.40;;;;;;5104799;27;20385;-47
2021/12/31 04:24:04;;;;;;;19.02;6.28;;;12.00;90.40;;;;;;5105007;28;20032;-45
2021/12/31 04:26:31;;;;;;;14.02;4.88;;;12.00;90.40;;;;;;5114659;27;20027;-44
2021/12/31 04:29:00;;;;;;;12.70;4.82;;;12.00;90.50;;;;;;5096654;28;20100;-45
2021/12/31 04:31:29;;;;;;;9.57;4.15;;;12.00;90.40;;;;;;5103917;28;20040;-44
2021/12/31 04:33:56;;;;;;;16.90;4.60;;;12.00;90.40;;;;;;5078646;28;20032;-44
2021/12/31 04:36:25;;;;;;;15.45;4.80;;;12.00;90.30;;;;;;5080141;28;20282;-46
2021/12/31 04:38:52;;;;;;;13.95;4.43;;;12.00;90.40;;;;;;5095184;28;20109;-45
2021/12/31 04:41:19;;;;;;;11.52;4.30;;;12.10;90.30;;;;;;5096444;27;20085;-46
2021/12/31 04:43:45;;;;;;;15.70;4.25;;;12.00;90.30;;;;;;5102320;27;20136;-47
2021/12/31 04:46:12;;;;;;;18.83;5.50;;;12.10;90.30;;;;;;5094400;28;20058;-44
2021/12/31 04:48:39;;;;;;;20.85;4.75;;;12.10;90.20;;;;;;5105102;28;20119;-47
2021/12/31 04:51:06;;;;;;;14.27;4.35;;;12.10;90.20;;;;;;5110555;28;20028;-45
2021/12/31 04:53:33;;;;;;;9.30;3.60;;;12.10;90.20;;;;;;5107809;27;20119;-47
2021/12/31 04:56:00;;;;;;;13.07;4.22;;;12.10;90.10;;;;;;5082657;28;20027;-50
2021/12/31 04:58:27;;;;;;;13.85;3.20;;;12.10;90.10;;;;;;5104293;28;20042;-47
2021/12/31 05:00:54;;;;;;;17.63;5.15;;;12.10;90.10;;;;;;5102218;27;20081;-47
2021/12/31 05:03:21;;;;;;;14.10;4.35;;;12.10;90.20;;;;;;5097241;28;20097;-43
2021/12/31 05:05:48;;;;;;;9.85;3.97;;;12.10;90.20;;;;;;5076720;28;20032;-43
2021/12/31 05:08:15;;;;;;;10.57;4.07;;;12.10;90.10;;;;;;5087056;28;20472;-47
2021/12/31 05:10:40;;;;;;;9.88;3.53;;;12.10;90.10;;;;;;5101788;27;20083;-46
2021/12/31 05:13:09;;;;;;;10.85;3.97;;;12.20;90.00;;;;;;5100301;28;20036;-45
2021/12/31 05:15:44;;;;;;;10.77;3.70;;;12.10;89.90;;;;;;5103585;28;20504;-45
2021/12/31 05:18:11;;;;;;;16.15;4.30;;;12.20;89.90;;;;;;5094526;27;20036;-47
2021/12/31 05:20:37;;;;;;;13.15;3.83;;;12.20;89.90;;;;;;5095602;28;20036;-48
2021/12/31 05:23:04;;;;;;;8.20;3.13;;;12.20;89.80;;;;;;5113919;28;20032;-47
2021/12/31 05:25:35;;;;;;;12.27;4.15;;;12.20;89.90;;;;;;5104183;28;20048;-45
2021/12/31 05:28:00;;;;;;;9.32;2.80;;;12.20;89.70;;;;;;5103140;28;20044;-44
2021/12/31 05:30:26;;;;;;;9.43;2.90;;;12.20;89.70;;;;;;5113074;27;20034;-43
2021/12/31 05:32:55;;;;;;;9.32;3.72;;;12.20;89.60;;;;;;5077686;28;20032;-45
2021/12/31 05:35:23;;;;;;;10.13;2.92;;;12.20;89.60;;;;;;5075902;28;20092;-48
2021/12/31 05:37:51;;;;;;;13.00;3.97;;;12.20;89.50;;;;;;5100412;28;20110;-45
2021/12/31 05:40:18;;;;;;;11.07;3.05;;;12.20;89.50;;;;;;5090538;27;20092;-47
2021/12/31 05:42:44;;;;;;;16.55;3.88;;;12.20;89.50;;;;;;5105681;28;20467;-47
2021/12/31 05:45:09;;;;;;;8.63;2.78;;;12.20;89.50;;;;;;5093598;28;20127;-46
2021/12/31 05:47:37;;;;;;;13.13;4.00;;;12.20;89.50;;;;;;5103278;28;20043;-45
2021/12/31 05:50:05;;;;;;;8.48;3.10;;;12.20;89.50;;;;;;5075789;28;20028;-44
2021/12/31 05:52:31;;;;;;;6.50;2.72;;;12.20;89.30;;;;;;5109936;27;20035;-46
2021/12/31 05:55:06;;;;;;;9.10;3.25;;;12.20;89.40;;;;;;5113298;28;20031;-44
2021/12/31 05:57:35;;;;;;;6.38;2.55;;;12.20;89.30;;;;;;5098358;28;20034;-49
2021/12/31 06:00:01;;;;;;;8.27;3.25;;;12.20;89.30;;;;;;5105669;28;20035;-48
2021/12/31 06:02:35;;;;;;;10.95;3.28;;;12.30;89.20;;;;;;5076296;28;20107;-47
2021/12/31 06:05:02;;;;;;;8.88;2.67;;;12.30;89.20;;;;;;5093922;28;20043;-46
2021/12/31 06:07:28;;;;;;;9.45;2.88;;;12.30;89.20;;;;;;5077816;28;20024;-44
2021/12/31 06:09:55;;;;;;;7.38;2.45;;;12.30;89.10;;;;;;5093570;28;20051;-49
2021/12/31 06:12:23;;;;;;;9.43;2.80;;;12.30;89.20;;;;;;5106856;28;20357;-45
2021/12/31 06:14:53;;;;;;;9.27;2.60;;;12.20;89.30;;;;;;5106563;28;20341;-43
2021/12/31 06:17:25;;;;;;;9.20;3.00;;;12.30;89.30;;;;;;5099567;28;20421;-46
2021/12/31 06:19:53;;;;;;;10.10;2.85;;;12.30;89.30;;;;;;5108481;28;20131;-46
2021/12/31 06:22:21;;;;;;;7.97;3.28;;;12.30;89.20;;;;;;5078989;27;20106;-44
2021/12/31 06:24:48;;;;;;;5.75;2.53;;;12.40;89.00;;;;;;5096613;28;20036;-47
2021/12/31 06:27:15;;;;;;;12.07;3.33;;;12.30;89.00;;;;;;5094246;28;20038;-45
2021/12/31 06:29:41;;;;;;;10.48;3.20;;;12.40;89.00;;;;;;5111563;27;20036;-46
2021/12/31 06:32:08;;;;;;;10.23;2.38;;;12.40;89.10;;;;;;5100232;28;20036;-46
2021/12/31 06:34:35;;;;;;;11.15;3.28;;;12.40;89.10;;;;;;5102634;28;20027;-46
2021/12/31 06:37:02;;;;;;;6.60;2.97;;;12.40;88.90;;;;;;5110580;28;20357;-49
2021/12/31 06:39:29;;;;;;;6.40;2.75;;;12.40;89.00;;;;;;5091802;28;20043;-50
2021/12/31 06:41:56;;;;;;;5.82;2.90;;;12.40;89.00;;;;;;5093715;28;20032;-44
2021/12/31 06:44:25;;;;;;;6.78;3.03;;;12.40;88.90;;;;;;5094989;28;20059;-48
2021/12/31 06:46:52;;;;;;;10.10;3.33;;;12.40;88.80;;;;;;5102109;28;20055;-47
2021/12/31 06:49:17;;;;;;;10.60;2.85;;;12.40;88.70;;;;;;5101658;28;20488;-46
2021/12/31 06:51:44;;;;;;;7.35;3.42;;;12.50;88.50;;;;;;5101120;28;20066;-47
2021/12/31 06:54:11;;;;;;;8.63;3.00;;;12.50;88.50;;;;;;5080000;28;20039;-48
2021/12/31 06:56:38;;;;;;;8.50;2.92;;;12.40;88.50;;;;;;5075772;28;20085;-47
2021/12/31 06:59:05;;;;;;;5.68;3.10;;;12.50;88.60;;;;;;5098451;28;20339;-47
2021/12/31 07:01:31;;;;;;;8.40;2.83;;;12.50;88.50;;;;;;5093869;28;20416;-51
2021/12/31 07:03:58;;;;;;;7.93;3.20;;;12.50;88.60;;;;;;5096769;28;20040;-47
2021/12/31 07:06:27;;;;;;;4.90;2.55;;;12.50;88.50;;;;;;5092330;28;20056;-47
2021/12/31 07:08:54;;;;;;;8.80;3.50;;;12.50;88.60;;;;;;5093265;28;20322;-47
2021/12/31 07:11:22;;;;;;;7.68;3.35;;;12.50;88.60;;;;;;5092051;28;20032;-46
2021/12/31 07:13:49;;;;;;;5.82;3.28;;;12.50;88.50;;;;;;5104628;28;20337;-46
2021/12/31 07:16:17;;;;;;;8.85;3.83;;;12.50;88.60;;;;;;5112610;28;20027;-49
2021/12/31 07:18:44;;;;;;;10.38;5.35;;;12.50;88.60;;;;;;5086260;28;20042;-49
2021/12/31 07:21:13;;;;;;;8.68;3.83;;;12.50;88.60;;;;;;5092126;28;20039;-49
2021/12/31 07:23:39;;;;;;;11.32;4.55;;;12.50;88.60;;;;;;5098543;28;20353;-48
2021/12/31 07:26:07;;;;;;;7.00;4.20;;;12.50;88.60;;;;;;5099173;28;20419;-50
2021/12/31 07:28:33;;;;;;;8.27;4.28;;;12.50;88.60;;;;;;5110122;27;20123;-49
2021/12/31 07:31:00;;;;;;;10.63;5.05;;;12.50;88.70;;;;;;5097714;27;20229;-52
2021/12/31 07:33:28;;;;;;;6.20;5.28;;;12.50;88.60;;;;;;5102892;27;20111;-47
2021/12/31 07:35:55;;;;;;;8.05;3.95;;;12.50;88.60;;;;;;5110538;28;20036;-46
2021/12/31 07:38:32;;;;;;;8.82;4.78;;;12.50;88.60;;;;;;5095275;28;20774;-52
2021/12/31 07:40:59;;;;;;;8.60;4.20;;;12.60;88.50;;;;;;5110742;27;20082;-47
2021/12/31 07:43:24;;;;;;;6.05;4.20;;;12.60;88.50;;;;;;5109533;27;20398;-45
2021/12/31 07:45:52;;;;;;;7.80;4.28;;;12.60;88.40;;;;;;5090182;28;20036;-46
2021/12/31 07:48:20;;;;;;;7.38;4.10;;;12.60;88.40;;;;;;5109710;28;20023;-49
2021/12/31 07:50:50;;;;;;;8.48;4.55;;;12.50;88.40;;;;;;5112337;27;20027;-45
2021/12/31 07:53:20;;;;;;;9.32;4.40;;;12.60;88.40;;;;;;5101541;28;20043;-50
2021/12/31 07:55:50;;;;;;;9.30;5.05;;;12.60;88.30;;;;;;5103624;28;20053;-47
2021/12/31 07:58:20;;;;;;;8.00;4.35;;;12.60;88.20;;;;;;5089009;28;20031;-49
2021/12/31 08:00:50;;;;;;;8.15;4.47;;;12.60;88.10;;;;;;5079235;28;20467;-46
2021/12/31 08:03:17;;;;;;;5.97;3.83;;;12.60;88.20;;;;;;5109448;28;20101;-46
2021/12/31 08:05:44;;;;;;;8.43;4.32;;;12.60;88.10;;;;;;5094916;28;20039;-47
2021/12/31 08:08:10;;;;;;;6.80;4.10;;;12.60;88.10;;;;;;5110856;28;20100;-46
2021/12/31 08:10:40;;;;;;;7.07;4.13;;;12.60;88.00;;;;;;5110956;28;20096;-51
2021/12/31 08:13:07;;;;;;;9.68;5.07;;;12.60;88.00;;;;;;5091984;28;20030;-47
2021/12/31 08:15:33;;;;;;;9.95;4.25;;;12.70;87.90;;;;;;5101461;28;20031;-46
2021/12/31 08:17:59;;;;;;;7.43;3.55;;;12.60;87.90;;;;;;5083925;28;20420;-45
2021/12/31 08:20:26;;;;;;;6.82;4.30;;;12.50;88.00;;;;;;5085733;27;20035;-47
2021/12/31 08:22:53;;;;;;;5.45;3.38;;;12.50;88.10;;;;;;5110764;28;20110;-48
2021/12/31 08:25:23;;;;;;;7.45;3.85;;;12.50;88.00;;;;;;5106778;28;20034;-45
2021/12/31 08:27:49;;;;;;;5.53;3.70;;;12.60;88.00;;;;;;5088121;28;20032;-45
2021/12/31 08:30:16;;;;;;;4.55;3.40;;;12.50;88.00;;;;;;5087499;28;20031;-45
2021/12/31 08:32:43;;;;;;;9.60;3.50;;;12.60;87.90;;;;;;5086400;28;20043;-46
2021/12/31 08:35:10;;;;;;;10.55;3.85;;;12.60;87.90;;;;;;5103057;28;20032;-49
2021/12/31 08:37:38;;;;;;;6.50;3.17;;;12.60;87.70;;;;;;5093685;28;20036;-46
2021/12/31 08:40:06;;;;;;;5.07;3.25;;;12.60;87.60;;;;;;5109785;28;20032;-47
2021/12/31 08:42:31;;;;;;;8.07;3.03;;;12.60;87.60;;;;;;5109002;27;20071;-49
2021/12/31 08:44:57;;;;;;;9.05;3.80;;;12.60;87.60;;;;;;5100304;27;20615;-48
2021/12/31 08:47:23;;;;;;;7.47;3.15;;;12.50;87.60;;;;;;5081786;28;20031;-45
2021/12/31 08:49:50;;;;;;;6.65;3.20;;;12.60;87.70;;;;;;5109151;28;20032;-45
2021/12/31 08:52:17;;;;;;;6.53;2.80;;;12.50;87.60;;;;;;5105342;27;20048;-45
2021/12/31 08:54:43;;;;;;;5.70;2.63;;;12.60;87.60;;;;;;5112354;28;20030;-45
2021/12/31 08:57:11;;;;;;;6.07;2.50;;;12.70;87.60;;;;;;5108874;27;20046;-47
2021/12/31 08:59:36;;;;;;;8.50;3.75;;;12.80;87.40;;;;;;5095306;27;20043;-49
2021/12/31 09:02:03;;;;;;;7.22;3.80;;;12.90;87.00;;;;;;5106984;27;20035;-49
2021/12/31 09:04:29;;;;;;;5.55;2.83;;;13.00;86.80;;;;;;5111747;28;20042;-46
2021/12/31 09:06:54;;;;;;;5.28;2.80;;;13.10;86.50;;;;;;5109677;28;20419;-45
2021/12/31 09:09:21;;;;;;;6.07;2.38;;;13.10;86.20;;;;;;5091100;28;20027;-45
2021/12/31 09:11:48;;;;;;;5.53;2.20;;;13.00;86.40;;;;;;5109746;27;20152;-46
2021/12/31 09:14:15;;;;;;;8.18;3.33;;;13.00;86.50;;;;;;5107435;28;20027;-46
2021/12/31 09:16:45;;;;;;;6.15;2.50;;;12.90;86.60;;;;;;5105909;28;20835;-45
2021/12/31 09:19:12;;;;;;;4.25;2.35;;;12.90;86.50;;;;;;5109324;28;20102;-48
2021/12/31 09:21:39;;;;;;;6.63;3.05;;;12.90;86.70;;;;;;5073722;28;20059;-45
2021/12/31 09:24:07;;;;;;;6.78;2.70;;;12.90;86.70;;;;;;5111158;27;20035;-47
2021/12/31 09:26:34;;;;;;;7.35;2.97;;;12.90;86.70;;;;;;5107670;27;20064;-49
2021/12/31 09:29:01;;;;;;;6.45;2.72;;;12.90;86.80;;;;;;5114414;27;20027;-48
2021/12/31 09:31:29;;;;;;;5.63;2.83;;;12.90;86.80;;;;;;5092315;28;20184;-47
2021/12/31 09:33:55;;;;;;;4.05;2.20;;;12.90;86.70;;;;;;5110197;27;20028;-47
2021/12/31 09:36:23;;;;;;;5.63;2.20;;;12.80;86.70;;;;;;5110673;28;20031;-45
2021/12/31 09:38:51;;;;;;;4.47;2.40;;;12.90;86.70;;;;;;5110245;27;20034;-46
2021/12/31 09:41:18;;;;;;;5.53;2.25;;;12.90;86.70;;;;;;5106202;28;20035;-45
2021/12/31 09:43:52;;;;;;;5.25;2.40;;;12.90;86.70;;;;;;5098234;28;20059;-47
2021/12/31 09:46:19;;;;;;;8.10;2.83;;;12.90;86.80;;;;;;5108123;28;20341;-46
2021/12/31 09:48:46;;;;;;;4.50;2.63;;;12.80;86.80;;;;;;5086542;28;20453;-48
2021/12/31 09:51:14;;;;;;;7.18;2.97;;;12.80;86.60;;;;;;5090548;28;20036;-48
2021/12/31 09:53:41;;;;;;;5.45;3.03;;;12.80;86.70;;;;;;5093008;27;20627;-46
2021/12/31 09:56:08;;;;;;;6.97;3.70;;;12.80;86.60;;;;;;5109654;28;20039;-48
2021/12/31 09:58:36;;;;;;;7.97;3.17;;;12.80;86.70;;;;;;5111184;28;20024;-45
2021/12/31 10:01:08;;;;;;;6.00;2.70;;;12.90;86.60;;;;;;5110117;28;20024;-50
2021/12/31 10:03:34;;;;;;;5.85;2.90;;;12.80;86.50;;;;;;5099152;27;20032;-49
2021/12/31 10:06:09;;;;;;;7.43;2.92;;;12.90;86.60;;;;;;5081545;28;20024;-45
2021/12/31 10:08:57;;;;;;;9.30;3.25;;;12.90;86.60;;;;;;5087927;28;20026;-46
2021/12/31 10:11:24;;;;;;;6.88;2.65;;;12.80;86.60;;;;;;5096713;28;20047;-48
2021/12/31 10:14:08;;;;;;;9.32;3.28;;;12.90;86.60;;;;;;5079322;28;20819;-47
2021/12/31 10:16:39;;;;;;;5.07;2.47;;;12.80;86.70;;;;;;5096465;27;20059;-45
2021/12/31 10:19:17;;;;;;;7.32;3.30;;;12.80;86.80;;;;;;5097104;28;20059;-50
2021/12/31 10:21:46;;;;;;;7.57;3.20;;;12.70;87.40;;;;;;5089045;28;20050;-48
2021/12/31 10:24:37;;;;;;;9.93;3.23;;;12.70;87.70;;;;;;5094717;27;20042;-47
2021/12/31 10:27:21;;;;;;;6.47;3.80;;;12.60;88.00;;;;;;5106941;27;20278;-45
2021/12/31 10:30:04;;;;;;;7.10;3.50;;;12.50;88.10;;;;;;5093244;28;20032;-45
2021/12/31 10:32:40;;;;;;;8.45;3.80;;;12.50;88.30;;;;;;5087371;28;20031;-45
2021/12/31 10:35:24;;;;;;;6.35;3.50;;;12.50;88.20;;;;;;5103478;28;20455;-46
2021/12/31 10:38:02;;;;;;;6.75;3.65;;;12.50;88.00;;;;;;5103942;28;20530;-47
2021/12/31 10:40:46;;;;;;;5.72;3.35;;;12.50;87.80;;;;;;5102402;28;20090;-45
2021/12/31 10:43:16;;;;;;;7.20;3.60;;;12.50;87.70;;;;;;5103973;28;20055;-47
2021/12/31 10:46:09;;;;;;;8.75;3.75;;;12.50;87.80;;;;;;5095785;28;20024;-47
2021/12/31 10:48:54;;;;;;;8.00;4.18;;;12.50;87.80;;;;;;5096527;28;20445;-47
2021/12/31 10:51:46;;;;;;;9.45;3.83;;;12.50;88.00;;;;;;5092736;28;20476;-46
2021/12/31 10:54:28;;;;;;;6.07;3.97;;;12.50;88.00;;;;;;5092244;28;20031;-45
2021/12/31 10:56:56;;;;;;;6.65;3.70;;;12.50;88.00;;;;;;5095519;28;20111;-47
2021/12/31 10:59:23;;;;;;;8.90;3.90;;;12.50;88.10;;;;;;5093298;27;20047;-45
2021/12/31 11:01:51;;;;;;;11.38;4.53;;;12.50;88.30;;;;;;5091066;28;20479;-47
2021/12/31 11:04:21;;;;;;;7.82;3.60;;;12.40;88.50;;;;;;5084587;28;20031;-44
2021/12/31 11:06:48;;;;;;;14.52;4.15;;;12.40;88.60;;;;;;5093525;28;20024;-45
2021/12/31 11:09:16;;;;;;;7.40;3.92;;;12.40;89.00;;;;;;5104174;27;20032;-44
2021/12/31 11:11:44;;;;;;;10.45;4.20;;;12.40;89.20;;;;;;5108339;28;20036;-45
2021/12/31 11:14:12;;;;;;;9.32;4.18;;;12.30;89.40;;;;;;5115541;28;20019;-44
2021/12/31 11:16:40;;;;;;;7.25;4.38;;;12.30;89.60;;;;;;5104612;28;20047;-50
2021/12/31 11:19:07;;;;;;;5.78;3.38;;;12.30;89.80;;;;;;5094835;28;20052;-49
2021/12/31 11:21:37;;;;;;;8.68;4.78;;;12.30;90.10;;;;;;5083544;28;20028;-46
2021/12/31 11:24:40;;;;;;;9.60;4.78;;;12.30;90.10;;;;;;5113787;28;20035;-49
2021/12/31 11:27:45;;;;;;;6.82;4.25;;;12.20;90.20;;;;;;5106650;27;20367;-49
2021/12/31 11:30:40;;;;;;;6.63;4.18;;;12.20;90.50;;;;;;5102538;27;20540;-51
2021/12/31 11:33:26;;;;;;;6.50;4.05;;;12.20;90.60;;;;;;5108870;27;20078;-51
2021/12/31 11:36:02;;;;;;;7.28;4.10;;;12.20;90.70;;;;;;5103314;27;20038;-48
2021/12/31 11:38:30;;;;;;;5.50;3.63;;;12.20;90.60;;;;;;5096635;28;20101;-52
2021/12/31 11:41:12;;;;;;;9.02;4.75;;;12.20;90.60;;;;;;5095927;28;20103;-52
2021/12/31 11:43:40;;;;;;;9.40;5.15;;;12.20;90.80;;;;;;5099663;27;20048;-48
2021/12/31 11:46:12;;;;;;;9.30;5.25;;;12.20;90.90;;;;;;5112350;27;20036;-48
2021/12/31 11:48:44;;;;;;;8.50;3.95;;;12.20;90.90;;;;;;5108736;28;20031;-49
2021/12/31 11:51:25;;;;;;;10.93;4.28;;;12.10;90.90;;;;;;5102870;28;20035;-53
2021/12/31 11:53:59;;;;;;;8.93;4.10;;;12.10;91.00;;;;;;5095334;27;20508;-52
2021/12/31 11:59:16;;;;;;;13.15;4.07;;;12.00;91.10;;;;;;5111174;28;20043;-57
2021/12/31 12:02:06;;;;;;;8.48;4.68;;;11.90;91.20;;;;;;5080238;28;20122;-50
2021/12/31 12:04:53;;;;;;;9.07;6.25;;;12.00;91.20;;;;;;5105295;28;20028;-50
2021/12/31 12:07:37;;;;;;;7.72;4.60;;;11.90;91.10;;;;;;5110605;27;20024;-52
2021/12/31 12:10:06;;;;;;;8.40;5.22;;;11.90;91.20;;;;;;5105360;28;20042;-56
2021/12/31 12:12:38;;;;;;;8.32;5.28;;;11.90;91.20;;;;;;5103379;28;20048;-51
2021/12/31 12:15:34;;;;;;;11.27;6.32;;;11.90;91.20;;;;;;5077521;28;20028;-49
2021/12/31 12:18:03;;;;;;;9.82;6.03;;;11.90;91.20;;;;;;5091098;27;20050;-49
2021/12/31 12:20:35;;;;;;;10.50;5.80;;;11.90;91.30;;;;;;5108240;28;20082;-51
2021/12/31 12:23:13;;;;;;;15.50;5.63;;;11.90;91.40;;;;;;5102633;27;20028;-55
2021/12/31 12:25:40;;;;;;;9.45;5.88;;;11.90;91.40;;;;;;5093463;28;20019;-54
2021/12/31 12:28:09;;;;;;;9.98;5.88;;;11.90;91.40;;;;;;5114512;27;20213;-53
2021/12/31 12:31:04;;;;;;;11.60;7.53;;;11.90;91.30;;;;;;5097059;28;20039;-51
2021/12/31 12:33:31;;;;;;;10.70;5.97;;;12.00;91.30;;;;;;5097261;27;20313;-51
2021/12/31 12:35:59;;;;;;;14.82;6.30;;;12.00;91.20;;;;;;5079614;28;20039;-53
2021/12/31 12:38:30;;;;;;;8.18;5.60;;;12.00;91.30;;;;;;5096529;28;20062;-55
2021/12/31 12:41:09;;;;;;;7.75;4.80;;;12.00;91.30;;;;;;5101662;28;20390;-52
2021/12/31 12:43:46;;;;;;;7.45;5.32;;;12.10;91.30;;;;;;5094928;27;20051;-50
2021/12/31 12:46:18;;;;;;;9.02;6.10;;;12.00;91.30;;;;;;5096403;28;20145;-52
2021/12/31 12:48:49;;;;;;;7.70;5.97;;;12.00;91.30;;;;;;5096018;27;20028;-49
2021/12/31 12:51:24;;;;;;;7.30;6.22;;;12.00;91.40;;;;;;5080560;28;20020;-49
2021/12/31 12:53:54;;;;;;;9.73;5.55;;;11.90;91.30;;;;;;5102227;28;20032;-51
2021/12/31 12:56:22;;;;;;;6.78;5.20;;;12.00;91.40;;;;;;5096384;28;20020;-52
2021/12/31 12:58:57;;;;;;;10.95;6.07;;;11.90;91.40;;;;;;5094675;27;20353;-52
2021/12/31 13:01:39;;;;;;;8.32;4.75;;;11.90;91.40;;;;;;5105297;27;20110;-53